createdAt,value
2023-05-21T00:00:33.505Z,40.06
2023-05-21T00:03:16.613Z,39.84
2023-05-21T00:05:29.420Z,39.63
2023-05-21T00:07:48.693Z,39.72
2023-05-21T00:09:57.889Z,39.84
2023-05-21T00:12:08.566Z,39.65
2023-05-21T00:14:17.683Z,39.67
2023-05-21T00:16:30.077Z,39.80
2023-05-21T00:18:39.861Z,40.00
2023-05-21T00:20:59.603Z,39.72
2023-05-21T00:23:19.787Z,39.72
2023-05-21T00:25:29.341Z,39.78
2023-05-21T00:27:39.474Z,39.79
2023-05-21T00:29:48.951Z,39.66
2023-05-21T00:31:58.412Z,39.58
2023-05-21T00:34:07.764Z,39.45
2023-05-21T00:36:16.937Z,39.64
2023-05-21T00:38:33.253Z,39.81
2023-05-21T00:40:42.641Z,39.76
2023-05-21T00:42:52.957Z,39.64
2023-05-21T00:45:05.286Z,39.50
2023-05-21T00:47:18.719Z,39.58
2023-05-21T00:49:28.061Z,39.70
2023-05-21T00:51:40.794Z,39.52
2023-05-21T00:53:51.822Z,39.57
2023-05-21T00:56:04.547Z,39.58
2023-05-21T00:58:13.792Z,39.70
2023-05-21T01:00:24.934Z,39.90
2023-05-21T01:02:35.050Z,39.84
2023-05-21T01:04:44.875Z,39.84
2023-05-21T01:06:56.528Z,39.79
2023-05-21T01:09:07.607Z,39.74
2023-05-21T01:11:18.133Z,39.70
2023-05-21T01:13:29.312Z,39.67
2023-05-21T01:15:41.945Z,39.51
2023-05-21T01:17:51.929Z,39.63
2023-05-21T01:20:02.942Z,39.73
2023-05-21T01:22:14.681Z,39.72
2023-05-21T01:24:24.349Z,39.83
2023-05-21T01:26:39.249Z,39.70
2023-05-21T01:28:48.518Z,39.68
2023-05-21T01:31:02.835Z,39.56
2023-05-21T01:33:19.117Z,39.55
2023-05-21T01:35:32.252Z,39.53
2023-05-21T01:37:47.002Z,39.50
2023-05-21T01:40:07.393Z,39.61
2023-05-21T01:42:18.614Z,39.51
2023-05-21T01:44:29.284Z,39.51
2023-05-21T01:46:39.564Z,39.46
2023-05-21T01:48:51.753Z,39.33
2023-05-21T01:51:05.234Z,39.15
2023-05-21T01:53:14.614Z,39.25
2023-05-21T01:55:25.762Z,39.12
2023-05-21T01:57:35.089Z,39.36
2023-05-21T01:59:44.633Z,39.17
2023-05-21T02:01:53.909Z,38.95
2023-05-21T02:04:03.589Z,38.94
2023-05-21T02:06:14.454Z,39.02
2023-05-21T02:08:23.768Z,38.83
2023-05-21T02:10:34.342Z,38.20
2023-05-21T02:12:44.610Z,38.15
2023-05-21T02:14:56.732Z,37.95
2023-05-21T02:17:06.434Z,37.80
2023-05-21T02:19:15.597Z,37.53
2023-05-21T02:21:25.094Z,37.33
2023-05-21T02:23:34.526Z,36.21
2023-05-21T02:25:47.460Z,35.46
2023-05-21T02:27:57.129Z,34.97
2023-05-21T02:30:07.443Z,34.58
2023-05-21T02:32:17.294Z,34.31
2023-05-21T02:34:26.638Z,34.04
2023-05-21T02:36:36.462Z,34.01
2023-05-21T02:38:46.349Z,33.85
2023-05-21T02:40:56.881Z,33.88
2023-05-21T02:43:06.503Z,33.92
2023-05-21T02:45:16.814Z,34.10
2023-05-21T02:47:26.525Z,34.19
2023-05-21T02:49:35.871Z,34.27
2023-05-21T02:51:45.392Z,34.28
2023-05-21T02:53:55.167Z,34.41
2023-05-21T02:56:04.867Z,34.56
2023-05-21T02:58:15.311Z,34.57
2023-05-21T03:00:25.158Z,34.69
2023-05-21T03:02:34.963Z,34.75
2023-05-21T03:04:46.467Z,34.95
2023-05-21T03:06:55.356Z,35.08
2023-05-21T03:09:06.310Z,35.30
2023-05-21T03:11:14.058Z,35.28
2023-05-21T03:13:24.257Z,35.34
2023-05-21T03:15:35.373Z,35.58
2023-05-21T03:17:44.886Z,35.78
2023-05-21T03:19:55.003Z,35.85
2023-05-21T03:22:05.150Z,35.93
2023-05-21T03:24:16.944Z,36.02
2023-05-21T03:26:29.862Z,36.24
2023-05-21T03:28:42.394Z,36.35
2023-05-21T03:30:52.434Z,36.43
2023-05-21T03:33:17.027Z,36.71
2023-05-21T03:35:27.740Z,36.87
2023-05-21T03:37:37.701Z,36.94
2023-05-21T03:39:47.174Z,37.19
2023-05-21T03:41:57.504Z,37.34
2023-05-21T03:44:42.109Z,37.41
2023-05-21T03:47:14.213Z,37.67
2023-05-21T03:49:27.132Z,37.87
2023-05-21T03:51:39.961Z,38.20
2023-05-21T03:53:49.591Z,38.59
2023-05-21T03:55:59.113Z,38.97
2023-05-21T03:58:09.916Z,39.25
2023-05-21T04:00:19.962Z,39.54
2023-05-21T04:02:29.589Z,39.78
2023-05-21T04:04:39.979Z,39.95
2023-05-21T04:06:50.003Z,40.15
2023-05-21T04:08:59.320Z,40.40
2023-05-21T04:11:12.357Z,40.55
2023-05-21T04:13:33.387Z,40.98
2023-05-21T04:15:44.015Z,40.92
2023-05-21T04:17:53.767Z,41.19
2023-05-21T04:20:03.076Z,41.21
2023-05-21T04:22:13.918Z,41.44
2023-05-21T04:24:31.951Z,41.62
2023-05-21T04:26:49.480Z,41.76
2023-05-21T04:28:59.762Z,41.82
2023-05-21T04:31:09.657Z,42.02
2023-05-21T04:33:21.609Z,42.28
2023-05-21T04:35:44.838Z,42.41
2023-05-21T04:37:55.300Z,42.44
2023-05-21T04:40:05.846Z,42.49
2023-05-21T04:42:15.191Z,42.73
2023-05-21T04:44:25.127Z,42.97
2023-05-21T04:46:35.529Z,42.96
2023-05-21T04:48:45.481Z,43.11
2023-05-21T04:50:54.966Z,43.10
2023-05-21T04:53:04.917Z,43.28
2023-05-21T04:55:24.707Z,43.29
2023-05-21T04:57:33.930Z,43.58
2023-05-21T04:59:44.051Z,43.73
2023-05-21T05:01:53.707Z,43.70
2023-05-21T05:04:04.726Z,43.85
2023-05-21T05:06:17.670Z,43.91
2023-05-21T05:08:27.478Z,44.08
2023-05-21T05:10:37.082Z,44.11
2023-05-21T05:12:55.447Z,44.25
2023-05-21T05:15:04.981Z,44.31
2023-05-21T05:17:16.028Z,44.32
2023-05-21T05:19:25.899Z,44.43
2023-05-21T05:21:35.491Z,44.59
2023-05-21T05:23:45.054Z,44.73
2023-05-21T05:25:54.629Z,44.79
2023-05-21T05:28:04.307Z,44.86
2023-05-21T05:30:17.295Z,44.91
2023-05-21T05:32:27.757Z,45.04
2023-05-21T05:34:38.120Z,45.10
2023-05-21T05:36:47.753Z,45.28
2023-05-21T05:38:57.271Z,45.43
2023-05-21T05:41:06.915Z,45.44
2023-05-21T05:43:17.080Z,45.51
2023-05-21T05:45:31.497Z,45.61
2023-05-21T05:47:41.130Z,45.78
2023-05-21T05:49:50.605Z,45.91
2023-05-21T05:51:59.927Z,45.99
2023-05-21T05:54:09.543Z,46.13
2023-05-21T05:56:18.863Z,46.20
2023-05-21T05:58:28.201Z,46.29
2023-05-21T06:00:40.876Z,46.44
2023-05-21T06:02:50.166Z,46.59
2023-05-21T06:04:59.891Z,46.73
2023-05-21T06:07:09.824Z,46.95
2023-05-21T06:09:19.502Z,47.12
2023-05-21T06:11:49.593Z,47.29
2023-05-21T06:14:01.198Z,47.43
2023-05-21T06:16:16.310Z,47.59
2023-05-21T06:18:25.527Z,47.67
2023-05-21T06:20:35.408Z,47.73
2023-05-21T06:22:54.973Z,47.93
2023-05-21T06:25:04.636Z,47.95
2023-05-21T06:27:14.233Z,48.13
2023-05-21T06:29:24.093Z,48.28
2023-05-21T06:31:34.436Z,48.34
2023-05-21T06:33:44.085Z,48.52
2023-05-21T06:35:53.425Z,48.67
2023-05-21T06:38:02.803Z,48.84
2023-05-21T06:40:16.079Z,48.89
2023-05-21T06:42:26.167Z,49.07
2023-05-21T06:44:51.765Z,49.21
2023-05-21T06:47:13.004Z,49.35
2023-05-21T06:49:22.286Z,49.33
2023-05-21T06:51:32.091Z,49.51
2023-05-21T06:53:41.685Z,49.64
2023-05-21T06:55:54.074Z,49.62
2023-05-21T06:58:11.340Z,49.69
2023-05-21T07:00:21.403Z,49.89
2023-05-21T07:02:30.852Z,49.89
2023-05-21T07:04:50.474Z,50.14
2023-05-21T07:07:04.902Z,50.27
2023-05-21T07:09:14.619Z,50.44
2023-05-21T07:11:29.025Z,50.53
2023-05-21T07:13:39.104Z,50.61
2023-05-21T07:15:48.479Z,50.71
2023-05-21T07:17:58.156Z,50.68
2023-05-21T07:20:13.647Z,50.89
2023-05-21T07:22:25.519Z,50.97
2023-05-21T07:24:39.148Z,51.21
2023-05-21T07:26:58.799Z,51.28
2023-05-21T07:29:09.385Z,51.35
2023-05-21T07:31:20.315Z,51.56
2023-05-21T07:33:31.216Z,51.66
2023-05-21T07:35:41.301Z,51.76
2023-05-21T07:37:51.027Z,51.91
2023-05-21T07:40:01.999Z,52.02
2023-05-21T07:42:12.539Z,52.14
2023-05-21T07:44:23.226Z,52.25
2023-05-21T07:46:33.039Z,52.43
2023-05-21T07:48:44.016Z,52.45
2023-05-21T07:50:53.990Z,52.55
2023-05-21T07:53:10.649Z,52.62
2023-05-21T07:55:20.743Z,52.70
2023-05-21T07:57:30.333Z,52.81
2023-05-21T07:59:43.106Z,52.93
2023-05-21T08:01:53.191Z,52.98
2023-05-21T08:04:07.145Z,53.16
2023-05-21T08:06:17.970Z,53.28
2023-05-21T08:08:27.778Z,53.26
2023-05-21T08:10:38.244Z,53.41
2023-05-21T08:12:48.801Z,53.48
2023-05-21T08:14:58.940Z,53.53
2023-05-21T08:17:11.035Z,53.64
2023-05-21T08:19:43.015Z,53.78
2023-05-21T08:21:55.582Z,53.86
2023-05-21T08:24:05.433Z,53.90
2023-05-21T08:26:17.639Z,54.02
2023-05-21T08:28:27.912Z,54.12
2023-05-21T08:30:37.329Z,54.15
2023-05-21T08:32:46.927Z,54.23
2023-05-21T08:34:57.919Z,54.33
2023-05-21T08:37:46.007Z,54.38
2023-05-21T08:40:14.303Z,54.44
2023-05-21T08:42:37.589Z,54.57
2023-05-21T08:44:54.094Z,54.65
2023-05-21T08:47:07.535Z,54.68
2023-05-21T08:49:27.064Z,54.83
2023-05-21T08:51:38.988Z,54.80
2023-05-21T08:53:50.012Z,54.81
2023-05-21T08:56:00.242Z,54.98
2023-05-21T08:58:21.072Z,54.95
2023-05-21T09:00:31.476Z,55.06
2023-05-21T09:02:44.260Z,55.13
2023-05-21T09:04:57.415Z,55.26
2023-05-21T09:07:07.310Z,55.35
2023-05-21T09:09:41.768Z,55.41
2023-05-21T09:11:51.705Z,55.48
2023-05-21T09:14:02.089Z,55.61
2023-05-21T09:16:31.240Z,55.75
2023-05-21T09:18:41.361Z,55.78
2023-05-21T09:21:27.652Z,55.92
2023-05-21T09:24:00.715Z,56.04
2023-05-21T09:26:14.600Z,56.11
2023-05-21T09:28:23.992Z,56.17
2023-05-21T09:30:36.111Z,56.30
2023-05-21T09:32:46.208Z,56.42
2023-05-21T09:34:55.718Z,56.47
2023-05-21T09:37:08.518Z,56.62
2023-05-21T09:39:33.701Z,56.69
2023-05-21T09:41:49.189Z,56.76
2023-05-21T09:44:03.033Z,56.88
2023-05-21T09:46:13.325Z,56.94
2023-05-21T09:48:43.206Z,57.04
2023-05-21T09:51:08.735Z,57.06
2023-05-21T09:53:17.914Z,57.18
2023-05-21T09:55:28.506Z,57.23
2023-05-21T09:57:44.932Z,57.23
2023-05-21T09:59:54.994Z,57.47
2023-05-21T10:02:27.327Z,57.39
2023-05-21T10:04:34.829Z,57.40
2023-05-21T10:06:49.292Z,57.43
2023-05-21T10:09:02.539Z,57.42
2023-05-21T10:11:16.567Z,57.59
2023-05-21T10:13:26.504Z,57.70
2023-05-21T10:15:40.249Z,57.80
2023-05-21T10:17:59.715Z,57.85
2023-05-21T10:20:12.374Z,57.81
2023-05-21T10:22:21.832Z,57.87
2023-05-21T10:24:31.394Z,57.86
2023-05-21T10:26:42.910Z,57.90
2023-05-21T10:28:53.661Z,57.85
2023-05-21T10:31:03.489Z,57.98
2023-05-21T10:33:14.194Z,57.90
2023-05-21T10:35:24.831Z,58.00
2023-05-21T10:37:34.136Z,57.99
2023-05-21T10:39:46.227Z,57.98
2023-05-21T10:41:59.218Z,57.91
2023-05-21T10:44:19.161Z,57.99
2023-05-21T10:46:59.331Z,57.97
2023-05-21T10:49:31.954Z,58.00
2023-05-21T10:51:51.547Z,57.95
2023-05-21T10:54:22.622Z,58.02
2023-05-21T10:56:38.668Z,58.08
2023-05-21T10:59:22.475Z,58.08
2023-05-21T11:01:35.046Z,58.24
2023-05-21T11:03:44.915Z,58.17
2023-05-21T11:05:58.788Z,58.28
2023-05-21T11:08:20.199Z,58.36
2023-05-21T11:10:41.110Z,58.38
2023-05-21T11:13:15.366Z,58.49
2023-05-21T11:15:25.410Z,58.52
2023-05-21T11:17:45.031Z,58.51
2023-05-21T11:19:56.411Z,58.55
2023-05-21T11:22:07.564Z,58.65
2023-05-21T11:24:22.552Z,58.55
2023-05-21T11:26:53.078Z,58.57
2023-05-21T11:29:13.426Z,58.41
2023-05-21T11:31:34.604Z,58.53
2023-05-21T11:33:44.132Z,58.53
2023-05-21T11:36:03.760Z,58.50
2023-05-21T11:38:13.860Z,58.57
2023-05-21T11:40:27.607Z,58.68
2023-05-21T11:42:42.498Z,58.64
2023-05-21T11:44:52.436Z,58.56
2023-05-21T11:47:01.755Z,58.71
2023-05-21T11:49:11.005Z,58.64
2023-05-21T11:51:21.612Z,58.76
2023-05-21T11:53:33.419Z,58.72
2023-05-21T11:55:47.663Z,58.71
2023-05-21T11:57:58.639Z,58.74
2023-05-21T12:00:15.016Z,58.68
2023-05-21T12:02:26.876Z,58.75
2023-05-21T12:04:37.855Z,58.66
2023-05-21T12:06:48.593Z,58.80
2023-05-21T12:08:58.649Z,58.73
2023-05-21T12:11:08.688Z,58.71
2023-05-21T12:13:18.380Z,58.58
2023-05-21T12:15:28.479Z,58.64
2023-05-21T12:17:38.037Z,58.75
2023-05-21T12:19:48.536Z,58.76
2023-05-21T12:21:57.914Z,58.77
2023-05-21T12:24:07.487Z,58.84
2023-05-21T12:26:17.769Z,58.75
2023-05-21T12:28:27.130Z,58.73
2023-05-21T12:30:39.962Z,58.63
2023-05-21T12:32:50.767Z,58.67
2023-05-21T12:35:00.268Z,58.67
2023-05-21T12:37:10.788Z,58.59
2023-05-21T12:39:21.466Z,58.56
2023-05-21T12:41:31.420Z,58.68
2023-05-21T12:43:41.652Z,58.64
2023-05-21T12:45:51.551Z,58.67
2023-05-21T12:48:02.862Z,58.65
2023-05-21T12:50:14.561Z,58.74
2023-05-21T12:52:24.191Z,58.68
2023-05-21T12:54:37.642Z,58.82
2023-05-21T12:56:50.257Z,58.81
2023-05-21T12:59:02.755Z,58.87
2023-05-21T13:01:27.333Z,58.89
2023-05-21T13:03:37.584Z,58.87
2023-05-21T13:05:47.236Z,58.83
2023-05-21T13:07:56.716Z,58.86
2023-05-21T13:10:06.947Z,58.89
2023-05-21T13:12:16.966Z,58.92
2023-05-21T13:14:26.449Z,59.00
2023-05-21T13:16:36.494Z,58.94
2023-05-21T13:19:06.252Z,59.13
2023-05-21T13:21:19.184Z,59.19
2023-05-21T13:23:28.337Z,59.29
2023-05-21T13:25:37.554Z,59.17
2023-05-21T13:27:47.586Z,59.16
2023-05-21T13:29:56.819Z,59.22
2023-05-21T13:32:10.601Z,59.33
2023-05-21T13:34:20.092Z,59.41
2023-05-21T13:36:29.542Z,59.29
2023-05-21T13:38:38.844Z,59.36
2023-05-21T13:40:48.483Z,59.34
2023-05-21T13:42:57.866Z,59.49
2023-05-21T13:45:07.982Z,59.47
2023-05-21T13:47:18.048Z,59.51
2023-05-21T13:49:27.352Z,59.46
2023-05-21T13:51:39.343Z,59.49
2023-05-21T13:53:49.093Z,59.57
2023-05-21T13:55:58.468Z,59.75
2023-05-21T13:58:07.760Z,59.79
2023-05-21T14:00:18.399Z,59.80
2023-05-21T14:02:28.791Z,59.83
2023-05-21T14:04:39.380Z,59.96
2023-05-21T14:06:49.190Z,59.90
2023-05-21T14:09:18.604Z,59.88
2023-05-21T14:11:28.481Z,59.92
2023-05-21T14:13:37.960Z,59.96
2023-05-21T14:15:50.928Z,60.02
2023-05-21T14:18:00.441Z,60.05
2023-05-21T14:20:15.298Z,60.05
2023-05-21T14:22:34.536Z,60.08
2023-05-21T14:24:43.739Z,60.14
2023-05-21T14:26:53.069Z,60.25
2023-05-21T14:29:02.504Z,60.15
2023-05-21T14:31:15.174Z,60.26
2023-05-21T14:33:28.049Z,60.36
2023-05-21T14:35:37.450Z,60.33
2023-05-21T14:37:47.016Z,60.31
2023-05-21T14:39:56.204Z,60.36
2023-05-21T14:42:07.027Z,60.36
2023-05-21T14:44:16.395Z,60.42
2023-05-21T14:46:26.197Z,60.54
2023-05-21T14:48:36.114Z,60.56
2023-05-21T14:50:46.181Z,60.67
2023-05-21T14:52:55.924Z,60.55
2023-05-21T14:55:05.462Z,60.62
2023-05-21T14:57:14.782Z,60.69
2023-05-21T14:59:24.041Z,60.68
2023-05-21T15:01:33.506Z,60.79
2023-05-21T15:03:43.602Z,60.96
2023-05-21T15:05:53.778Z,60.94
2023-05-21T15:08:04.447Z,61.10
2023-05-21T15:10:15.885Z,61.00
2023-05-21T15:12:27.645Z,61.15
2023-05-21T15:14:37.048Z,61.25
2023-05-21T15:16:46.574Z,61.22
2023-05-21T15:18:56.323Z,61.35
2023-05-21T15:21:06.573Z,61.48
2023-05-21T15:23:17.737Z,61.57
2023-05-21T15:25:27.408Z,61.57
2023-05-21T15:27:37.524Z,61.61
2023-05-21T15:29:47.134Z,61.78
2023-05-21T15:31:56.994Z,61.66
2023-05-21T15:34:06.574Z,61.73
2023-05-21T15:36:16.706Z,61.75
2023-05-21T15:38:26.080Z,61.93
2023-05-21T15:40:35.720Z,62.06
2023-05-21T15:42:45.077Z,62.04
2023-05-21T15:44:54.268Z,61.97
2023-05-21T15:47:03.662Z,62.05
2023-05-21T15:49:13.617Z,61.93
2023-05-21T15:51:23.131Z,61.99
2023-05-21T15:53:32.304Z,61.92
2023-05-21T15:55:41.424Z,61.84
2023-05-21T15:57:50.751Z,61.68
2023-05-21T16:00:00.125Z,61.62
2023-05-21T16:02:09.607Z,61.35
2023-05-21T16:04:20.488Z,61.14
2023-05-21T16:06:30.026Z,60.68
2023-05-21T16:08:49.292Z,60.36
2023-05-21T16:10:58.822Z,60.15
2023-05-21T16:13:08.073Z,60.10
2023-05-21T16:15:17.574Z,60.06
2023-05-21T16:17:27.031Z,59.95
2023-05-21T16:19:36.619Z,59.90
2023-05-21T16:21:45.953Z,59.93
2023-05-21T16:23:55.321Z,59.65
2023-05-21T16:26:15.256Z,59.51
2023-05-21T16:28:24.717Z,59.25
2023-05-21T16:30:34.129Z,59.15
2023-05-21T16:32:53.573Z,58.95
2023-05-21T16:35:03.243Z,58.76
2023-05-21T16:37:12.892Z,58.59
2023-05-21T16:39:22.382Z,58.66
2023-05-21T16:41:35.351Z,58.65
2023-05-21T16:43:44.906Z,58.52
2023-05-21T16:45:57.152Z,58.04
2023-05-21T16:48:06.850Z,57.86
2023-05-21T16:50:16.343Z,58.09
2023-05-21T16:52:26.642Z,57.94
2023-05-21T16:54:38.961Z,57.95
2023-05-21T16:56:48.565Z,57.78
2023-05-21T16:58:57.931Z,57.86
2023-05-21T17:01:10.733Z,57.93
2023-05-21T17:03:22.127Z,57.97
2023-05-21T17:05:41.723Z,57.64
2023-05-21T17:07:51.577Z,57.52
2023-05-21T17:10:00.951Z,57.45
2023-05-21T17:12:10.962Z,57.53
2023-05-21T17:14:32.981Z,57.65
2023-05-21T17:16:46.994Z,57.55
2023-05-21T17:18:56.704Z,57.55
2023-05-21T17:21:06.175Z,57.52
2023-05-21T17:23:15.930Z,57.60
2023-05-21T17:25:26.023Z,57.63
2023-05-21T17:27:35.208Z,57.48
2023-05-21T17:29:44.707Z,57.50
2023-05-21T17:31:54.500Z,57.30
2023-05-21T17:34:04.273Z,57.18
2023-05-21T17:36:14.655Z,57.11
2023-05-21T17:38:27.345Z,56.85
2023-05-21T17:40:36.848Z,56.66
2023-05-21T17:42:46.585Z,56.45
2023-05-21T17:44:56.063Z,56.34
2023-05-21T17:47:05.673Z,56.27
2023-05-21T17:49:15.338Z,56.31
2023-05-21T17:51:24.522Z,56.13
2023-05-21T17:53:33.847Z,56.02
2023-05-21T17:55:46.317Z,55.89
2023-05-21T17:57:55.573Z,55.96
2023-05-21T18:00:05.392Z,55.73
2023-05-21T18:02:20.924Z,55.64
2023-05-21T18:04:30.501Z,55.46
2023-05-21T18:06:49.264Z,55.45
2023-05-21T18:08:58.781Z,55.49
2023-05-21T18:11:08.760Z,55.34
2023-05-21T18:13:18.797Z,55.26
2023-05-21T18:15:28.163Z,55.14
2023-05-21T18:17:39.554Z,54.99
2023-05-21T18:19:48.947Z,54.94
2023-05-21T18:21:59.038Z,54.87
2023-05-21T18:24:12.259Z,54.87
2023-05-21T18:26:22.503Z,54.88
2023-05-21T18:28:33.597Z,54.91
2023-05-21T18:30:43.208Z,55.08
2023-05-21T18:32:53.207Z,55.12
2023-05-21T18:35:16.573Z,55.10
2023-05-21T18:37:48.923Z,55.04
2023-05-21T18:39:58.029Z,55.00
2023-05-21T18:42:13.270Z,55.05
2023-05-21T18:44:24.257Z,55.07
2023-05-21T18:46:33.545Z,55.18
2023-05-21T18:48:46.621Z,55.15
2023-05-21T18:50:55.923Z,55.29
2023-05-21T18:53:05.115Z,55.41
2023-05-21T18:55:15.194Z,55.46
2023-05-21T18:57:24.355Z,55.54
2023-05-21T18:59:33.774Z,55.37
2023-05-21T19:01:43.307Z,55.29
2023-05-21T19:03:52.819Z,55.25
2023-05-21T19:06:02.098Z,54.91
2023-05-21T19:08:15.559Z,54.96
2023-05-21T19:10:25.386Z,54.88
2023-05-21T19:12:36.485Z,54.70
2023-05-21T19:14:46.919Z,54.51
2023-05-21T19:17:06.907Z,54.35
2023-05-21T19:19:16.877Z,54.26
2023-05-21T19:21:26.649Z,54.05
2023-05-21T19:23:51.268Z,53.96
2023-05-21T19:26:02.335Z,53.90
2023-05-21T19:28:11.607Z,53.90
2023-05-21T19:30:21.095Z,53.82
2023-05-21T19:32:31.316Z,53.87
2023-05-21T19:34:41.375Z,53.95
2023-05-21T19:36:53.807Z,53.90
2023-05-21T19:39:04.528Z,53.89
2023-05-21T19:41:13.988Z,53.86
2023-05-21T19:43:23.512Z,53.70
2023-05-21T19:45:32.770Z,53.72
2023-05-21T19:47:42.566Z,53.50
2023-05-21T19:49:52.713Z,53.41
2023-05-21T19:52:02.787Z,53.18
2023-05-21T19:54:12.120Z,53.23
2023-05-21T19:56:22.305Z,52.86
2023-05-21T19:58:31.879Z,52.76
2023-05-21T20:00:41.364Z,52.61
2023-05-21T20:02:51.083Z,52.37
2023-05-21T20:05:03.690Z,52.17
2023-05-21T20:07:13.274Z,51.97
2023-05-21T20:09:23.047Z,51.80
2023-05-21T20:11:32.605Z,51.66
2023-05-21T20:13:41.880Z,51.54
2023-05-21T20:15:51.634Z,51.32
2023-05-21T20:18:04.222Z,50.99
2023-05-21T20:20:19.047Z,50.68
2023-05-21T20:22:28.518Z,50.39
2023-05-21T20:24:37.910Z,50.29
2023-05-21T20:26:47.399Z,50.18
2023-05-21T20:28:57.013Z,50.13
2023-05-21T20:31:15.621Z,49.99
2023-05-21T20:33:25.612Z,49.83
2023-05-21T20:35:35.067Z,49.71
2023-05-21T20:37:44.392Z,49.53
2023-05-21T20:39:58.149Z,49.46
2023-05-21T20:42:11.061Z,49.28
2023-05-21T20:44:21.672Z,49.32
2023-05-21T20:46:31.661Z,49.02
2023-05-21T20:48:42.177Z,48.90
2023-05-21T20:51:00.921Z,48.82
2023-05-21T20:53:10.228Z,48.59
2023-05-21T20:55:21.158Z,48.43
2023-05-21T20:57:33.376Z,48.45
2023-05-21T20:59:42.665Z,48.25
2023-05-21T21:01:52.928Z,48.31
2023-05-21T21:04:02.434Z,48.43
2023-05-21T21:06:11.972Z,48.43
2023-05-21T21:08:21.569Z,48.26
2023-05-21T21:10:31.244Z,48.21
2023-05-21T21:12:40.557Z,48.14
2023-05-21T21:14:50.043Z,48.14
2023-05-21T21:16:59.388Z,48.29
2023-05-21T21:19:08.651Z,48.49
2023-05-21T21:21:17.963Z,48.57
2023-05-21T21:23:29.596Z,48.81
2023-05-21T21:25:38.748Z,48.69
2023-05-21T21:27:48.647Z,48.50
2023-05-21T21:29:58.444Z,48.51
2023-05-21T21:32:08.860Z,48.45
2023-05-21T21:34:23.854Z,48.39
2023-05-21T21:36:33.399Z,48.21
2023-05-21T21:38:42.731Z,48.04
2023-05-21T21:40:52.508Z,47.87
2023-05-21T21:43:01.880Z,47.79
2023-05-21T21:45:13.065Z,47.58
2023-05-21T21:47:25.716Z,47.26
2023-05-21T21:49:34.993Z,47.37
2023-05-21T21:51:44.857Z,47.36
2023-05-21T21:53:54.377Z,47.33
2023-05-21T21:56:03.647Z,47.45
2023-05-21T21:58:13.196Z,47.32
2023-05-21T22:00:26.995Z,47.35
2023-05-21T22:02:36.468Z,47.24
2023-05-21T22:04:46.983Z,47.26
2023-05-21T22:06:56.349Z,47.19
2023-05-21T22:09:05.778Z,47.13
2023-05-21T22:11:25.326Z,47.17
2023-05-21T22:13:38.076Z,47.03
2023-05-21T22:15:47.675Z,46.96
2023-05-21T22:17:57.550Z,46.95
2023-05-21T22:20:07.686Z,46.96
2023-05-21T22:22:17.808Z,46.90
2023-05-21T22:26:43.065Z,46.62
2023-05-21T22:28:52.470Z,46.59
2023-05-21T22:31:02.252Z,46.59
2023-05-21T22:33:11.785Z,46.58
2023-05-21T22:35:21.251Z,46.72
2023-05-21T22:37:41.817Z,46.62
2023-05-21T22:39:51.452Z,46.47
2023-05-21T22:42:04.442Z,46.45
2023-05-21T22:44:16.743Z,46.50
2023-05-21T22:46:26.191Z,46.42
2023-05-21T22:48:37.552Z,46.48
2023-05-21T22:50:47.827Z,46.43
2023-05-21T22:52:57.223Z,46.25
2023-05-21T22:55:07.330Z,46.26
2023-05-21T22:57:16.682Z,46.30
2023-05-21T22:59:26.026Z,46.47
2023-05-21T23:01:35.395Z,46.53
2023-05-21T23:03:44.680Z,46.39
2023-05-21T23:05:54.547Z,46.28
2023-05-21T23:08:03.698Z,46.16
2023-05-21T23:10:14.054Z,46.18
2023-05-21T23:12:23.989Z,46.41
2023-05-21T23:14:33.769Z,46.52
2023-05-21T23:16:44.237Z,46.66
2023-05-21T23:18:54.802Z,46.69
2023-05-21T23:21:04.548Z,46.55
2023-05-21T23:23:13.903Z,46.72
2023-05-21T23:25:23.421Z,46.70
2023-05-21T23:27:32.824Z,46.55
2023-05-21T23:29:42.429Z,46.36
2023-05-21T23:31:52.148Z,46.49
2023-05-21T23:34:02.019Z,46.50
2023-05-21T23:36:12.158Z,46.45
2023-05-21T23:38:21.525Z,46.55
2023-05-21T23:40:30.951Z,46.79
2023-05-21T23:42:40.463Z,46.68
2023-05-21T23:44:50.202Z,46.67
2023-05-21T23:46:59.564Z,46.57
2023-05-21T23:49:08.893Z,46.53
2023-05-21T23:51:19.567Z,46.43
2023-05-21T23:53:31.727Z,46.39
2023-05-21T23:55:41.241Z,46.38
2023-05-21T23:57:50.771Z,46.23
